createdAt,value
2022-10-29T00:02:13.816Z,7.43
2022-10-29T00:04:40.652Z,7.33
2022-10-29T00:07:07.359Z,6.77
2022-10-29T00:09:35.530Z,6.63
2022-10-29T00:12:02.552Z,6.63
2022-10-29T00:14:29.328Z,7.27
2022-10-29T00:16:57.117Z,7.03
2022-10-29T00:19:26.084Z,7.37
2022-10-29T00:21:52.782Z,6.63
2022-10-29T00:24:19.463Z,7.07
2022-10-29T00:26:46.314Z,6.93
2022-10-29T00:29:13.047Z,7.07
2022-10-29T00:31:39.789Z,7.17
2022-10-29T00:34:06.495Z,7.27
2022-10-29T00:36:33.160Z,7.10
2022-10-29T00:38:59.898Z,7.00
2022-10-29T00:41:31.520Z,7.57
2022-10-29T00:44:23.424Z,7.23
2022-10-29T00:46:56.121Z,6.23
2022-10-29T00:49:29.911Z,7.00
2022-10-29T00:51:57.366Z,7.00
2022-10-29T00:54:24.260Z,7.13
2022-10-29T00:56:54.629Z,6.90
2022-10-29T00:59:21.512Z,6.57
2022-10-29T01:01:49.269Z,6.07
2022-10-29T01:04:17.614Z,7.50
2022-10-29T01:06:44.999Z,7.23
2022-10-29T01:09:11.816Z,7.23
2022-10-29T01:11:46.820Z,7.70
2022-10-29T01:14:49.357Z,7.67
2022-10-29T01:17:41.153Z,7.60
2022-10-29T01:20:46.502Z,6.87
2022-10-29T01:23:41.044Z,8.20
2022-10-29T01:26:48.033Z,9.37
2022-10-29T01:29:49.666Z,8.67
2022-10-29T01:32:24.664Z,10.40
2022-10-29T01:35:03.467Z,10.73
2022-10-29T01:37:37.581Z,10.43
2022-10-29T01:40:25.890Z,11.17
2022-10-29T01:43:07.392Z,10.47
2022-10-29T01:45:45.384Z,11.53
2022-10-29T01:48:25.748Z,11.00
2022-10-29T01:51:00.322Z,11.47
2022-10-29T01:53:29.422Z,12.40
2022-10-29T01:55:56.317Z,12.80
2022-10-29T01:58:24.745Z,12.50
2022-10-29T02:01:13.136Z,13.13
2022-10-29T02:03:54.729Z,13.53
2022-10-29T02:06:41.359Z,12.57
2022-10-29T02:09:22.905Z,12.33
2022-10-29T02:12:05.176Z,12.87
2022-10-29T02:15:07.543Z,11.23
2022-10-29T02:17:35.138Z,11.17
2022-10-29T02:20:07.305Z,11.90
2022-10-29T02:22:34.217Z,11.47
2022-10-29T02:25:02.451Z,12.27
2022-10-29T02:27:31.820Z,11.30
2022-10-29T02:29:58.477Z,11.90
2022-10-29T02:32:25.158Z,12.10
2022-10-29T02:34:52.038Z,11.57
2022-10-29T02:37:25.909Z,12.07
2022-10-29T02:39:52.687Z,11.93
2022-10-29T02:42:19.418Z,11.30
2022-10-29T02:44:46.123Z,11.70
2022-10-29T02:47:12.836Z,11.83
2022-10-29T02:49:39.539Z,11.70
2022-10-29T02:52:06.389Z,11.90
2022-10-29T02:54:33.073Z,11.87
2022-10-29T02:56:59.871Z,11.97
2022-10-29T02:59:26.588Z,12.43
2022-10-29T03:01:53.431Z,11.50
2022-10-29T03:04:20.767Z,13.10
2022-10-29T03:06:49.433Z,11.77
2022-10-29T03:09:16.126Z,11.03
2022-10-29T03:11:43.103Z,11.83
2022-10-29T03:14:09.856Z,12.30
2022-10-29T03:16:36.542Z,11.03
2022-10-29T03:19:03.593Z,11.90
2022-10-29T03:21:30.257Z,11.97
2022-10-29T03:23:56.955Z,12.80
2022-10-29T03:26:23.893Z,12.20
2022-10-29T03:28:50.669Z,11.70
2022-10-29T03:31:17.382Z,12.47
2022-10-29T03:33:44.090Z,12.10
2022-10-29T03:36:10.899Z,12.27
2022-10-29T03:38:37.675Z,11.97
2022-10-29T03:41:08.717Z,12.80
2022-10-29T03:43:39.317Z,11.63
2022-10-29T03:46:06.632Z,13.47
2022-10-29T03:48:34.202Z,14.37
2022-10-29T03:51:05.811Z,13.60
2022-10-29T03:53:33.665Z,14.30
2022-10-29T03:56:00.875Z,13.83
2022-10-29T03:58:28.419Z,13.93
2022-10-29T04:00:56.483Z,14.60
2022-10-29T04:03:23.559Z,14.47
2022-10-29T04:05:50.229Z,15.87
2022-10-29T04:08:17.006Z,12.73
2022-10-29T04:10:48.323Z,13.33
2022-10-29T04:13:15.795Z,13.47
2022-10-29T04:15:42.787Z,12.50
2022-10-29T04:18:13.256Z,12.10
2022-10-29T04:21:01.048Z,12.37
2022-10-29T04:29:01.622Z,12.37
2022-10-29T04:31:28.303Z,12.30
2022-10-29T04:33:54.984Z,11.43
2022-10-29T04:36:21.760Z,11.67
2022-10-29T04:38:51.340Z,12.70
2022-10-29T04:41:18.067Z,11.90
2022-10-29T04:43:44.789Z,12.00
2022-10-29T04:46:11.593Z,10.97
2022-10-29T04:48:38.516Z,10.93
2022-10-29T04:51:05.474Z,11.43
2022-10-29T04:53:32.359Z,11.40
2022-10-29T04:56:01.621Z,10.73
2022-10-29T04:58:31.632Z,10.90
2022-10-29T05:01:02.819Z,10.50
2022-10-29T05:03:29.726Z,10.63
2022-10-29T05:05:56.705Z,10.20
2022-10-29T05:08:24.734Z,10.30
2022-10-29T05:10:54.282Z,10.87
2022-10-29T05:13:21.143Z,10.80
2022-10-29T05:15:53.941Z,12.00
2022-10-29T05:18:20.983Z,11.40
2022-10-29T05:20:47.838Z,10.80
2022-10-29T05:23:14.612Z,11.23
2022-10-29T05:25:42.056Z,11.40
2022-10-29T05:28:19.036Z,11.03
2022-10-29T05:30:47.283Z,10.50
2022-10-29T05:33:19.645Z,9.57
2022-10-29T05:35:46.836Z,11.70
2022-10-29T05:38:16.163Z,11.43
2022-10-29T05:40:45.090Z,9.53
2022-10-29T05:43:13.952Z,11.03
2022-10-29T05:45:43.288Z,10.43
2022-10-29T05:50:42.784Z,10.60
2022-10-29T05:53:13.995Z,11.80
2022-10-29T05:55:41.761Z,11.93
2022-10-29T05:58:11.911Z,12.80
2022-10-29T06:00:41.170Z,13.63
2022-10-29T06:03:19.648Z,13.97
2022-10-29T06:05:48.108Z,13.07
2022-10-29T06:08:15.207Z,13.50
2022-10-29T06:10:41.907Z,13.73
2022-10-29T06:13:13.853Z,12.77
2022-10-29T06:15:40.809Z,13.47
2022-10-29T06:18:11.216Z,14.37
2022-10-29T06:20:39.395Z,13.87
2022-10-29T06:23:06.675Z,13.70
2022-10-29T06:25:33.509Z,15.27
2022-10-29T06:28:19.250Z,15.63
2022-10-29T06:30:49.094Z,16.83
2022-10-29T06:33:17.671Z,16.50
2022-10-29T06:35:44.856Z,15.60
2022-10-29T06:38:12.514Z,15.07
2022-10-29T06:40:40.559Z,15.07
2022-10-29T06:43:13.371Z,14.97
2022-10-29T06:45:40.149Z,15.13
2022-10-29T06:48:07.173Z,14.47
2022-10-29T06:50:34.281Z,15.57
2022-10-29T06:53:06.397Z,16.10
2022-10-29T06:55:35.893Z,15.60
2022-10-29T06:58:16.829Z,16.83
2022-10-29T07:00:44.253Z,16.33
2022-10-29T07:03:15.296Z,15.30
2022-10-29T07:05:42.182Z,17.90
2022-10-29T07:08:08.903Z,16.73
2022-10-29T07:10:36.154Z,18.27
2022-10-29T07:13:03.628Z,16.63
2022-10-29T07:15:31.209Z,16.93
2022-10-29T07:18:00.150Z,15.47
2022-10-29T07:20:31.612Z,16.00
2022-10-29T07:23:00.293Z,15.07
2022-10-29T07:25:28.074Z,15.63
2022-10-29T07:27:55.289Z,15.43
2022-10-29T07:30:22.311Z,15.17
2022-10-29T07:32:49.129Z,15.20
2022-10-29T07:35:15.814Z,16.23
2022-10-29T07:37:42.514Z,16.07
2022-10-29T07:40:10.628Z,16.03
2022-10-29T07:42:37.426Z,15.40
2022-10-29T07:45:04.583Z,15.80
2022-10-29T07:47:31.349Z,15.27
2022-10-29T07:49:58.228Z,15.67
2022-10-29T07:52:25.061Z,15.33
2022-10-29T07:54:51.711Z,15.53
2022-10-29T07:57:18.452Z,14.97
2022-10-29T07:59:49.267Z,15.20
2022-10-29T08:02:15.976Z,15.20
2022-10-29T08:04:42.730Z,16.10
2022-10-29T08:07:09.412Z,15.70
2022-10-29T08:09:36.084Z,15.57
2022-10-29T08:12:05.144Z,15.63
2022-10-29T08:14:31.817Z,14.53
2022-10-29T08:17:00.226Z,14.17
2022-10-29T08:19:27.089Z,15.17
2022-10-29T08:21:53.766Z,13.30
2022-10-29T08:24:23.268Z,12.70
2022-10-29T08:26:50.604Z,12.83
2022-10-29T08:29:17.843Z,12.90
2022-10-29T08:31:44.598Z,11.70
2022-10-29T08:34:11.563Z,13.37
2022-10-29T08:36:38.338Z,13.37
2022-10-29T08:39:05.011Z,13.17
2022-10-29T08:41:37.182Z,14.20
2022-10-29T08:44:14.457Z,13.70
2022-10-29T08:46:53.763Z,12.93
2022-10-29T08:49:46.992Z,12.10
2022-10-29T08:52:24.237Z,11.97
2022-10-29T08:55:14.950Z,12.47
2022-10-29T08:57:58.336Z,12.30
2022-10-29T09:00:34.474Z,12.73
2022-10-29T09:03:01.740Z,12.33
2022-10-29T09:05:39.053Z,11.60
2022-10-29T09:08:24.597Z,12.03
2022-10-29T09:10:57.084Z,12.07
2022-10-29T09:14:08.233Z,12.80
2022-10-29T09:16:50.027Z,12.57
2022-10-29T09:19:44.123Z,11.87
2022-10-29T09:22:49.001Z,12.53
2022-10-29T09:25:39.675Z,12.57
2022-10-29T09:28:19.346Z,13.17
2022-10-29T09:30:59.683Z,13.07
2022-10-29T09:33:26.971Z,13.67
2022-10-29T09:35:56.049Z,13.23
2022-10-29T09:38:34.346Z,12.43
2022-10-29T09:41:03.828Z,14.00
2022-10-29T09:43:45.969Z,12.67
2022-10-29T09:46:40.895Z,12.90
2022-10-29T09:49:13.664Z,11.30
2022-10-29T09:51:50.818Z,11.43
2022-10-29T09:54:18.107Z,10.60
2022-10-29T09:56:48.539Z,10.70
2022-10-29T09:59:38.676Z,10.47
2022-10-29T10:02:29.399Z,10.50
2022-10-29T10:05:02.522Z,9.63
2022-10-29T10:07:29.458Z,9.93
2022-10-29T10:10:01.447Z,9.60
2022-10-29T10:12:48.445Z,10.37
2022-10-29T10:15:28.311Z,10.60
2022-10-29T10:18:01.101Z,10.10
2022-10-29T10:21:24.137Z,10.50
2022-10-29T10:23:55.418Z,10.10
2022-10-29T10:26:45.345Z,10.40
2022-10-29T10:29:14.897Z,9.80
2022-10-29T10:32:06.038Z,9.50
2022-10-29T10:34:32.761Z,8.93
2022-10-29T10:37:03.994Z,9.00
2022-10-29T10:39:42.507Z,9.00
2022-10-29T10:42:27.460Z,7.73
2022-10-29T10:45:02.734Z,8.03
2022-10-29T10:47:36.732Z,7.40
2022-10-29T10:50:24.697Z,9.27
2022-10-29T10:52:55.309Z,31.63
2022-10-29T10:55:24.183Z,23.00
2022-10-29T10:57:58.512Z,16.70
2022-10-29T11:00:26.438Z,13.53
2022-10-29T11:06:03.124Z,8.37
2022-10-29T11:08:45.282Z,7.03
2022-10-29T11:11:19.791Z,7.23
2022-10-29T11:13:47.876Z,7.33
2022-10-29T11:16:28.055Z,6.60
2022-10-29T11:19:25.125Z,5.20
2022-10-29T11:22:03.426Z,5.20
2022-10-29T11:24:54.060Z,5.03
2022-10-29T11:27:35.726Z,5.20
2022-10-29T11:30:10.124Z,5.23
2022-10-29T11:32:57.689Z,5.00
2022-10-29T11:35:36.859Z,5.30
2022-10-29T11:38:18.663Z,5.00
2022-10-29T11:41:12.987Z,5.57
2022-10-29T11:43:39.910Z,5.27
2022-10-29T11:46:20.234Z,4.83
2022-10-29T11:49:24.442Z,4.93
2022-10-29T11:51:56.231Z,4.97
2022-10-29T11:54:40.845Z,5.20
2022-10-29T11:57:33.907Z,4.90
2022-10-29T12:00:19.986Z,5.43
2022-10-29T12:03:21.129Z,4.23
2022-10-29T12:05:56.488Z,4.03
2022-10-29T12:08:41.368Z,3.63
2022-10-29T12:11:37.936Z,4.10
2022-10-29T12:14:23.609Z,4.17
2022-10-29T12:17:07.094Z,4.47
2022-10-29T12:19:52.583Z,4.17
2022-10-29T12:22:36.405Z,3.83
2022-10-29T12:25:28.902Z,3.70
2022-10-29T12:28:07.358Z,3.70
2022-10-29T12:30:58.009Z,3.53
2022-10-29T12:33:32.228Z,3.63
2022-10-29T12:36:20.973Z,3.53
2022-10-29T12:38:55.583Z,3.70
2022-10-29T12:41:40.567Z,4.17
2022-10-29T12:44:22.011Z,4.30
2022-10-29T12:47:10.029Z,3.85
2022-10-29T12:49:45.454Z,3.33
2022-10-29T12:52:43.821Z,4.00
2022-10-29T12:55:13.637Z,2.92
2022-10-29T12:57:40.651Z,3.70
2022-10-29T13:00:27.300Z,3.03
2022-10-29T13:02:55.576Z,3.20
2022-10-29T13:05:25.793Z,3.25
2022-10-29T13:08:06.588Z,3.60
2022-10-29T13:10:33.218Z,3.72
2022-10-29T13:13:18.439Z,3.63
2022-10-29T13:15:58.502Z,4.00
2022-10-29T13:18:40.353Z,3.10
2022-10-29T13:21:08.227Z,3.13
2022-10-29T13:23:38.637Z,4.25
2022-10-29T13:26:07.106Z,3.83
2022-10-29T13:28:36.582Z,3.88
2022-10-29T13:31:06.064Z,3.45
2022-10-29T13:33:32.768Z,3.50
2022-10-29T13:36:04.298Z,3.72
2022-10-29T13:39:06.076Z,3.30
2022-10-29T13:41:44.461Z,3.95
2022-10-29T13:44:17.281Z,4.00
2022-10-29T13:46:57.469Z,3.70
2022-10-29T13:49:45.264Z,3.40
2022-10-29T13:52:16.696Z,3.70
2022-10-29T13:54:58.616Z,3.85
2022-10-29T13:57:34.221Z,4.03
2022-10-29T14:00:13.158Z,3.22
2022-10-29T14:02:42.694Z,3.60
2022-10-29T14:05:14.971Z,4.20
2022-10-29T14:07:58.523Z,4.88
2022-10-29T14:10:36.682Z,3.47
2022-10-29T14:13:20.658Z,5.00
2022-10-29T14:16:06.822Z,4.10
2022-10-29T14:18:40.875Z,3.87
2022-10-29T14:21:17.238Z,4.30
2022-10-29T14:24:06.419Z,3.50
2022-10-29T14:26:35.840Z,4.10
2022-10-29T14:29:21.355Z,4.27
2022-10-29T14:32:08.313Z,4.27
2022-10-29T14:34:35.155Z,4.10
2022-10-29T14:37:31.683Z,3.67
2022-10-29T14:40:03.366Z,4.18
2022-10-29T14:42:34.536Z,4.63
2022-10-29T14:45:06.377Z,5.03
2022-10-29T14:47:37.793Z,4.23
2022-10-29T14:50:14.425Z,4.33
2022-10-29T14:52:48.549Z,4.77
2022-10-29T14:55:32.544Z,4.83
2022-10-29T14:58:10.357Z,4.67
2022-10-29T15:00:40.146Z,4.20
2022-10-29T15:03:07.761Z,4.30
2022-10-29T15:05:39.159Z,4.67
2022-10-29T15:08:19.073Z,5.50
2022-10-29T15:10:57.428Z,4.90
2022-10-29T15:13:27.091Z,4.40
2022-10-29T15:16:15.907Z,5.00
2022-10-29T15:18:48.324Z,5.03
2022-10-29T15:21:26.922Z,4.67
2022-10-29T15:23:59.628Z,4.70
2022-10-29T15:26:26.986Z,4.47
2022-10-29T15:28:55.997Z,4.70
2022-10-29T15:31:42.845Z,4.57
2022-10-29T15:34:15.102Z,5.43
2022-10-29T15:36:50.901Z,4.30
2022-10-29T15:39:26.675Z,4.60
2022-10-29T15:41:58.269Z,4.60
2022-10-29T15:44:36.766Z,4.17
2022-10-29T15:47:20.209Z,4.87
2022-10-29T15:49:47.155Z,5.03
2022-10-29T15:52:18.872Z,4.90
2022-10-29T15:54:46.843Z,5.20
2022-10-29T15:57:15.761Z,5.13
2022-10-29T15:59:42.552Z,4.93
2022-10-29T16:02:18.589Z,5.27
2022-10-29T16:04:45.460Z,5.07
2022-10-29T16:07:16.200Z,5.37
2022-10-29T16:09:49.445Z,5.13
2022-10-29T16:12:19.238Z,4.80
2022-10-29T16:14:46.162Z,5.20
2022-10-29T16:17:21.121Z,5.30
2022-10-29T16:19:48.261Z,5.30
2022-10-29T16:22:20.374Z,6.90
2022-10-29T16:24:47.502Z,5.80
2022-10-29T16:27:16.884Z,5.50
2022-10-29T16:29:43.929Z,5.37
2022-10-29T16:32:19.375Z,5.33
2022-10-29T16:34:46.191Z,5.90
2022-10-29T16:37:15.442Z,5.20
2022-10-29T16:39:45.285Z,5.13
2022-10-29T16:42:29.048Z,4.73
2022-10-29T16:44:56.198Z,5.23
2022-10-29T16:47:23.046Z,5.47
2022-10-29T16:49:49.909Z,5.60
2022-10-29T16:52:20.960Z,5.37
2022-10-29T16:54:49.102Z,6.00
2022-10-29T16:57:15.946Z,5.87
2022-10-29T16:59:45.450Z,5.77
2022-10-29T17:02:12.235Z,6.40
2022-10-29T17:04:38.972Z,5.40
2022-10-29T17:07:05.886Z,6.17
2022-10-29T17:09:35.345Z,6.13
2022-10-29T17:12:02.586Z,5.80
2022-10-29T17:14:29.270Z,5.70
2022-10-29T17:16:57.297Z,6.43
2022-10-29T17:19:24.246Z,6.00
2022-10-29T17:21:51.109Z,6.83
2022-10-29T17:24:17.943Z,6.37
2022-10-29T17:26:44.666Z,6.47
2022-10-29T17:29:11.410Z,7.27
2022-10-29T17:31:38.104Z,6.93
2022-10-29T17:34:04.911Z,6.67
2022-10-29T17:36:31.657Z,6.37
2022-10-29T17:38:58.455Z,6.20
2022-10-29T17:41:28.356Z,6.17
2022-10-29T17:43:55.228Z,6.40
2022-10-29T17:46:22.000Z,7.23
2022-10-29T17:48:49.487Z,6.97
2022-10-29T17:51:16.486Z,6.97
2022-10-29T17:53:43.283Z,6.50
2022-10-29T17:56:09.999Z,6.83
2022-10-29T17:58:39.603Z,6.93
2022-10-29T18:01:08.057Z,7.37
2022-10-29T18:03:35.553Z,7.27
2022-10-29T18:06:04.324Z,7.50
2022-10-29T18:08:31.518Z,7.77
2022-10-29T18:11:10.172Z,7.37
2022-10-29T18:13:41.334Z,7.50
2022-10-29T18:16:18.336Z,8.47
2022-10-29T18:19:00.863Z,7.70
2022-10-29T18:21:29.644Z,8.17
2022-10-29T18:23:56.705Z,7.53
2022-10-29T18:26:23.378Z,7.50
2022-10-29T18:28:50.293Z,8.47
2022-10-29T18:31:17.042Z,8.57
2022-10-29T18:33:43.884Z,7.83
2022-10-29T18:36:11.409Z,8.93
2022-10-29T18:38:39.090Z,7.83
2022-10-29T18:41:06.671Z,7.53
2022-10-29T18:43:33.683Z,7.87
2022-10-29T18:46:04.626Z,7.60
2022-10-29T18:48:31.754Z,7.50
2022-10-29T18:51:29.395Z,7.73
2022-10-29T18:53:57.965Z,7.20
2022-10-29T18:56:26.554Z,8.07
2022-10-29T18:58:55.774Z,7.73
2022-10-29T19:01:25.368Z,8.07
2022-10-29T19:03:54.606Z,7.33
2022-10-29T19:06:23.275Z,8.17
2022-10-29T19:08:50.546Z,7.50
2022-10-29T19:11:20.875Z,7.27
2022-10-29T19:14:02.261Z,6.97
2022-10-29T19:16:30.608Z,6.30
2022-10-29T19:18:59.778Z,6.80
2022-10-29T19:21:27.038Z,7.07
2022-10-29T19:23:59.047Z,7.47
2022-10-29T19:26:28.401Z,6.40
2022-10-29T19:28:55.870Z,6.97
2022-10-29T19:31:26.259Z,6.83
2022-10-29T19:33:55.640Z,6.47
2022-10-29T19:36:23.797Z,6.70
2022-10-29T19:38:50.699Z,6.93
2022-10-29T19:41:18.312Z,5.93
2022-10-29T19:43:45.911Z,5.83
2022-10-29T19:46:15.874Z,6.00
2022-10-29T19:48:43.386Z,5.80
2022-10-29T19:51:10.912Z,5.30
2022-10-29T19:53:38.675Z,5.80
2022-10-29T19:56:07.475Z,6.03
2022-10-29T19:58:34.321Z,5.80
2022-10-29T20:01:06.638Z,5.07
2022-10-29T20:03:33.592Z,5.63
2022-10-29T20:06:00.559Z,5.50
2022-10-29T20:08:27.537Z,6.33
2022-10-29T20:10:58.633Z,5.53
2022-10-29T20:13:26.295Z,5.47
2022-10-29T20:15:53.654Z,5.27
2022-10-29T20:18:21.077Z,5.10
2022-10-29T20:20:56.896Z,5.50
2022-10-29T20:23:25.618Z,5.00
2022-10-29T20:25:52.652Z,5.73
2022-10-29T20:28:19.542Z,5.23
2022-10-29T20:30:46.271Z,5.33
2022-10-29T20:33:13.097Z,4.53
2022-10-29T20:35:40.019Z,5.30
2022-10-29T20:38:06.995Z,5.00
2022-10-29T20:40:33.767Z,5.03
2022-10-29T20:43:03.364Z,4.97
2022-10-29T20:45:30.149Z,4.77
2022-10-29T20:47:57.383Z,4.63
2022-10-29T20:50:24.295Z,5.40
2022-10-29T20:52:51.359Z,5.23
2022-10-29T20:55:20.973Z,5.47
2022-10-29T20:57:47.796Z,4.77
2022-10-29T21:00:14.933Z,5.27
2022-10-29T21:02:41.768Z,4.90
2022-10-29T21:05:08.980Z,5.23
2022-10-29T21:07:35.775Z,5.27
2022-10-29T21:10:02.612Z,5.70
2022-10-29T21:12:29.379Z,5.03
2022-10-29T21:14:56.230Z,5.37
2022-10-29T21:17:23.072Z,4.83
2022-10-29T21:19:49.759Z,5.67
2022-10-29T21:22:18.990Z,5.80
2022-10-29T21:24:48.910Z,5.50
2022-10-29T21:27:16.055Z,5.10
2022-10-29T21:29:42.791Z,5.40
2022-10-29T21:32:12.832Z,5.90
2022-10-29T21:34:42.708Z,5.60
2022-10-29T21:37:09.416Z,5.37
2022-10-29T21:39:36.134Z,5.03
2022-10-29T21:42:03.132Z,5.43
2022-10-29T21:44:29.857Z,6.13
2022-10-29T21:46:56.676Z,6.17
2022-10-29T21:49:23.431Z,5.20
2022-10-29T21:51:50.449Z,6.13
2022-10-29T21:54:17.279Z,5.50
2022-10-29T21:56:44.073Z,6.37
2022-10-29T21:59:10.751Z,5.47
2022-10-29T22:01:37.686Z,6.10
2022-10-29T22:04:04.562Z,6.00
2022-10-29T22:06:31.394Z,5.70
2022-10-29T22:08:59.767Z,6.07
2022-10-29T22:11:28.147Z,5.27
2022-10-29T22:13:55.480Z,5.03
2022-10-29T22:16:22.865Z,5.50
2022-10-29T22:18:50.938Z,5.67
2022-10-29T22:21:22.163Z,4.97
2022-10-29T22:23:51.601Z,6.57
2022-10-29T22:26:20.867Z,5.40
2022-10-29T22:28:48.445Z,5.13
2022-10-29T22:31:17.370Z,5.33
2022-10-29T22:33:44.887Z,5.17
2022-10-29T22:36:16.080Z,5.67
2022-10-29T22:38:43.114Z,5.50
2022-10-29T22:41:15.399Z,5.73
2022-10-29T22:43:42.530Z,5.60
2022-10-29T22:46:10.623Z,5.43
2022-10-29T22:48:37.684Z,5.40
2022-10-29T22:51:12.394Z,5.60
2022-10-29T22:53:39.256Z,6.30
2022-10-29T22:56:12.754Z,5.67
2022-10-29T22:58:39.650Z,6.53
2022-10-29T23:01:14.978Z,5.53
2022-10-29T23:03:42.550Z,5.80
2022-10-29T23:06:11.874Z,5.87
2022-10-29T23:08:38.877Z,5.57
2022-10-29T23:11:20.672Z,5.80
2022-10-29T23:13:55.286Z,5.47
2022-10-29T23:16:23.517Z,5.87
2022-10-29T23:18:52.066Z,6.57
2022-10-29T23:21:19.663Z,5.40
2022-10-29T23:23:47.342Z,6.23
2022-10-29T23:26:15.254Z,6.30
2022-10-29T23:28:42.972Z,6.17
2022-10-29T23:31:20.704Z,6.00
2022-10-29T23:33:50.017Z,6.50
2022-10-29T23:36:18.267Z,6.20
2022-10-29T23:38:45.194Z,6.10
2022-10-29T23:41:12.825Z,5.90
2022-10-29T23:43:39.832Z,6.83
2022-10-29T23:46:07.186Z,6.77
2022-10-29T23:48:33.986Z,6.13
2022-10-29T23:51:00.739Z,7.33
2022-10-29T23:53:30.343Z,6.03
2022-10-29T23:55:57.161Z,6.47
2022-10-29T23:58:23.923Z,6.40
